Jacksonville, FL (32227)

10:19 AM EDT on April 29, 2017 (GMT -0400)
Atlantic Beach/Mayport | | Change Station

Elev 13 ft 30.37 °N, 81.41 °W | Updated 2 seconds ago

Mostly Cloudy
Mostly Cloudy
82.1 °F
Feels Like 90 °F
N
1.0
Wind Variable Wind from SE
Gusts 6.0 mph

Today
High -- | Low -- °F
--% Chance of Precip.
Yesterday
High -- | Low -- °F
Precip. -- in
Pressure 30.20 in
Visibility 10.0 miles
Clouds Few 1300 ft
Mostly Cloudy 2600 ft
Heat Index 90 °F
Dew Point 77 °F
Humidity 84%
Rainfall 0.00 in
Snow Depth Not available.
6:43 AM 8:02 PM
Waxing Crescent, 14% visible
SPECI KNRB 291406Z AUTO 14012G21KT 10SM FEW013 BKN026 24/23 A3020 RMK AO2 T02440233 $
Pressure 30.20 in
Visibility 10.0 miles
Clouds Few 1300 ft
Mostly Cloudy 2600 ft
Heat Index 90 °F
Dew Point 77 °F
Humidity 84%
Rainfall 0.00 in
Snow Depth Not available.
6:43 AM 8:02 PM
Waxing Crescent, 14% visible
SPECI KNRB 291406Z AUTO 14012G21KT 10SM FEW013 BKN026 24/23 A3020 RMK AO2 T02440233 $

Get Severe Weather Alerts

Thanks for signing up!

Be on the lookout for a verification email in your inbox.

You'll start receiving the daily forecast at 8 AM.

×

10-Day Weather Forecast

Almanac

Astronomy

Apr. 29, 2017 Rise Set
Actual Time
Civil Twilight
Nautical Twilight
Astronomical Twilight
Moon
Length of Visible Light
Length of Day
Tomorrow will be .
, % of the Moon is Illuminated

Today's Extremes

State Highs State Lows

Community

WunderPhotos

WunderBlog® & News

Nearby

Air Quality

  Air Quality AQ Index Pollutant
Not available.

Snow Depth

Station Depth Elevation

Earthquake Activity

City Distance Mag. Time & Date
Minimum magnitude displayed is 2.5.

Coastal Water Temperatures

Place Temperature

Stations

Nearby Weather Stations

Station Location Temp. Windchill Dew Point Humidity Wind Precip. Elev Updated Type
                   

Watches & Warnings

There are currently no watches in effect.